sensor_id;sensor_type;location;lat;lon;timestamp;pressure;altitude;pressure_sealevel;temperature;humidity
67434;BME280;54305;47.950;6.572;2023-08-01T00:00:37;93558.50;;;17.58;100.00
67434;BME280;54305;47.950;6.572;2023-08-01T00:03:02;93566.38;;;17.76;100.00
67434;BME280;54305;47.950;6.572;2023-08-01T00:05:28;93565.94;;;17.79;100.00
67434;BME280;54305;47.950;6.572;2023-08-01T00:07:53;93573.97;;;17.84;100.00
67434;BME280;54305;47.950;6.572;2023-08-01T00:10:18;93578.31;;;17.90;100.00
67434;BME280;54305;47.950;6.572;2023-08-01T00:12:43;93577.19;;;17.86;100.00
67434;BME280;54305;47.950;6.572;2023-08-01T00:15:09;93567.78;;;17.90;100.00
67434;BME280;54305;47.950;6.572;2023-08-01T00:17:34;93572.63;;;17.93;100.00
67434;BME280;54305;47.950;6.572;2023-08-01T00:20:00;93567.34;;;17.93;100.00
67434;BME280;54305;47.950;6.572;2023-08-01T00:22:25;93560.06;;;17.95;100.00
67434;BME280;54305;47.950;6.572;2023-08-01T00:24:51;93553.16;;;17.94;100.00
67434;BME280;54305;47.950;6.572;2023-08-01T00:27:16;93552.81;;;17.90;100.00
67434;BME280;54305;47.950;6.572;2023-08-01T00:29:41;93544.69;;;17.92;100.00
67434;BME280;54305;47.950;6.572;2023-08-01T00:32:06;93537.00;;;17.90;100.00
67434;BME280;54305;47.950;6.572;2023-08-01T00:34:32;93542.63;;;17.94;100.00
67434;BME280;54305;47.950;6.572;2023-08-01T00:36:57;93528.53;;;17.88;100.00
67434;BME280;54305;47.950;6.572;2023-08-01T00:39:23;93542.63;;;17.94;100.00
67434;BME280;54305;47.950;6.572;2023-08-01T00:41:48;93528.19;;;17.96;100.00
67434;BME280;54305;47.950;6.572;2023-08-01T00:44:13;93531.97;;;18.00;100.00
67434;BME280;54305;47.950;6.572;2023-08-01T00:46:39;93514.22;;;17.96;100.00
67434;BME280;54305;47.950;6.572;2023-08-01T00:49:04;93522.44;;;17.88;100.00
67434;BME280;54305;47.950;6.572;2023-08-01T00:51:30;93525.44;;;17.91;100.00
67434;BME280;54305;47.950;6.572;2023-08-01T00:53:56;93522.44;;;17.88;100.00
67434;BME280;54305;47.950;6.572;2023-08-01T00:56:22;93530.22;;;17.83;100.00
67434;BME280;54305;47.950;6.572;2023-08-01T00:58:47;93519.91;;;17.81;100.00
67434;BME280;54305;47.950;6.572;2023-08-01T01:01:12;93526.28;;;17.74;100.00
67434;BME280;54305;47.950;6.572;2023-08-01T01:03:38;93519.97;;;17.75;100.00
67434;BME280;54305;47.950;6.572;2023-08-01T01:06:12;93509.44;;;17.75;100.00
67434;BME280;54305;47.950;6.572;2023-08-01T01:08:40;93513.34;;;17.72;100.00
67434;BME280;54305;47.950;6.572;2023-08-01T01:11:06;93515.84;;;17.67;100.00
67434;BME280;54305;47.950;6.572;2023-08-01T01:13:31;93513.00;;;17.69;100.00
67434;BME280;54305;47.950;6.572;2023-08-01T01:15:56;93512.84;;;17.64;100.00
67434;BME280;54305;47.950;6.572;2023-08-01T01:18:21;93525.31;;;17.57;100.00
67434;BME280;54305;47.950;6.572;2023-08-01T01:20:47;93522.56;;;17.52;100.00
67434;BME280;54305;47.950;6.572;2023-08-01T01:23:12;93518.41;;;17.56;100.00
67434;BME280;54305;47.950;6.572;2023-08-01T01:25:37;93532.84;;;17.53;100.00
67434;BME280;54305;47.950;6.572;2023-08-01T01:28:04;93519.19;;;17.45;100.00
67434;BME280;54305;47.950;6.572;2023-08-01T01:30:30;93521.81;;;17.45;100.00
67434;BME280;54305;47.950;6.572;2023-08-01T01:32:58;93526.72;;;17.41;100.00
67434;BME280;54305;47.950;6.572;2023-08-01T01:35:23;93531.19;;;17.41;100.00
67434;BME280;54305;47.950;6.572;2023-08-01T01:37:49;93526.78;;;17.35;100.00
67434;BME280;54305;47.950;6.572;2023-08-01T01:40:14;93531.31;;;17.28;100.00
67434;BME280;54305;47.950;6.572;2023-08-01T01:42:39;93521.66;;;17.22;100.00
67434;BME280;54305;47.950;6.572;2023-08-01T01:45:04;93525.78;;;17.18;100.00
67434;BME280;54305;47.950;6.572;2023-08-01T01:47:30;93523.38;;;17.16;100.00
67434;BME280;54305;47.950;6.572;2023-08-01T01:49:55;93519.34;;;17.14;100.00
67434;BME280;54305;47.950;6.572;2023-08-01T01:52:21;93523.00;;;17.13;100.00
67434;BME280;54305;47.950;6.572;2023-08-01T01:54:46;93516.13;;;17.12;100.00
67434;BME280;54305;47.950;6.572;2023-08-01T01:57:11;93521.22;;;17.07;100.00
67434;BME280;54305;47.950;6.572;2023-08-01T01:59:36;93506.47;;;17.06;100.00
67434;BME280;54305;47.950;6.572;2023-08-01T02:02:02;93510.00;;;17.00;100.00
67434;BME280;54305;47.950;6.572;2023-08-01T02:04:29;93510.00;;;17.00;100.00
67434;BME280;54305;47.950;6.572;2023-08-01T02:06:54;93523.44;;;16.92;100.00
67434;BME280;54305;47.950;6.572;2023-08-01T02:09:19;93502.25;;;16.87;100.00
67434;BME280;54305;47.950;6.572;2023-08-01T02:11:45;93513.66;;;16.81;100.00
67434;BME280;54305;47.950;6.572;2023-08-01T02:14:10;93522.63;;;16.73;100.00
67434;BME280;54305;47.950;6.572;2023-08-01T02:16:35;93525.47;;;16.72;100.00
67434;BME280;54305;47.950;6.572;2023-08-01T02:19:00;93531.97;;;16.69;100.00
67434;BME280;54305;47.950;6.572;2023-08-01T02:21:26;93539.03;;;16.69;100.00
67434;BME280;54305;47.950;6.572;2023-08-01T02:23:51;93549.94;;;16.72;100.00
67434;BME280;54305;47.950;6.572;2023-08-01T02:26:16;93558.25;;;16.69;100.00
67434;BME280;54305;47.950;6.572;2023-08-01T02:28:41;93565.13;;;16.70;100.00
67434;BME280;54305;47.950;6.572;2023-08-01T02:31:07;93550.56;;;16.68;100.00
67434;BME280;54305;47.950;6.572;2023-08-01T02:33:32;93554.66;;;16.64;100.00
67434;BME280;54305;47.950;6.572;2023-08-01T02:35:57;93516.69;;;16.60;100.00
67434;BME280;54305;47.950;6.572;2023-08-01T02:38:22;93504.19;;;16.55;100.00
67434;BME280;54305;47.950;6.572;2023-08-01T02:40:48;93508.06;;;16.53;100.00
67434;BME280;54305;47.950;6.572;2023-08-01T02:43:13;93495.34;;;16.50;100.00
67434;BME280;54305;47.950;6.572;2023-08-01T02:45:38;93488.94;;;16.46;100.00
67434;BME280;54305;47.950;6.572;2023-08-01T02:48:03;93489.56;;;16.41;100.00
67434;BME280;54305;47.950;6.572;2023-08-01T02:50:29;93470.41;;;16.34;100.00
67434;BME280;54305;47.950;6.572;2023-08-01T02:52:54;93475.28;;;16.31;100.00
67434;BME280;54305;47.950;6.572;2023-08-01T02:55:19;93490.25;;;16.30;100.00
67434;BME280;54305;47.950;6.572;2023-08-01T02:57:44;93468.09;;;16.20;100.00
67434;BME280;54305;47.950;6.572;2023-08-01T06:42:30;93321.25;;;14.65;100.00
67434;BME280;54305;47.950;6.572;2023-08-01T06:44:56;93343.63;;;14.67;100.00
67434;BME280;54305;47.950;6.572;2023-08-01T06:47:21;93331.91;;;14.70;100.00
67434;BME280;54305;47.950;6.572;2023-08-01T06:49:46;93322.25;;;14.70;100.00
67434;BME280;54305;47.950;6.572;2023-08-01T06:52:11;93338.75;;;14.71;100.00
67434;BME280;54305;47.950;6.572;2023-08-01T06:54:37;93340.38;;;14.72;100.00
67434;BME280;54305;47.950;6.572;2023-08-01T06:57:02;93334.13;;;14.73;100.00
67434;BME280;54305;47.950;6.572;2023-08-01T06:59:27;93352.88;;;14.70;100.00
67434;BME280;54305;47.950;6.572;2023-08-01T07:01:53;93346.41;;;14.72;100.00
67434;BME280;54305;47.950;6.572;2023-08-01T07:04:18;93336.38;;;14.69;100.00
67434;BME280;54305;47.950;6.572;2023-08-01T07:06:44;93347.22;;;14.73;100.00
67434;BME280;54305;47.950;6.572;2023-08-01T07:09:09;93349.84;;;14.73;100.00
67434;BME280;54305;47.950;6.572;2023-08-01T07:11:35;93353.50;;;14.72;100.00
67434;BME280;54305;47.950;6.572;2023-08-01T07:14:01;93355.69;;;14.75;100.00
67434;BME280;54305;47.950;6.572;2023-08-01T07:16:26;93368.56;;;14.76;100.00
67434;BME280;54305;47.950;6.572;2023-08-01T07:18:51;93357.88;;;14.78;100.00
67434;BME280;54305;47.950;6.572;2023-08-01T07:21:17;93364.16;;;14.77;100.00
67434;BME280;54305;47.950;6.572;2023-08-01T07:23:42;93362.97;;;14.73;100.00
67434;BME280;54305;47.950;6.572;2023-08-01T07:26:07;93359.50;;;14.79;100.00
67434;BME280;54305;47.950;6.572;2023-08-01T07:28:35;93364.50;;;14.87;100.00
67434;BME280;54305;47.950;6.572;2023-08-01T07:31:04;93370.16;;;14.84;100.00
67434;BME280;54305;47.950;6.572;2023-08-01T07:33:30;93374.97;;;14.87;100.00
67434;BME280;54305;47.950;6.572;2023-08-01T07:35:55;93357.66;;;14.86;100.00
67434;BME280;54305;47.950;6.572;2023-08-01T07:38:21;93374.97;;;14.87;100.00
67434;BME280;54305;47.950;6.572;2023-08-01T07:40:46;93363.31;;;14.83;100.00
67434;BME280;54305;47.950;6.572;2023-08-01T07:43:11;93347.75;;;14.88;100.00
67434;BME280;54305;47.950;6.572;2023-08-01T07:45:37;93366.44;;;14.98;100.00
67434;BME280;54305;47.950;6.572;2023-08-01T07:48:03;93358.75;;;15.03;100.00
67434;BME280;54305;47.950;6.572;2023-08-01T07:50:28;93358.16;;;15.01;100.00
67434;BME280;54305;47.950;6.572;2023-08-01T07:52:53;93359.59;;;14.97;100.00
67434;BME280;54305;47.950;6.572;2023-08-01T07:55:19;93350.31;;;15.01;100.00
67434;BME280;54305;47.950;6.572;2023-08-01T07:57:45;93355.47;;;15.07;100.00
67434;BME280;54305;47.950;6.572;2023-08-01T08:00:11;93374.06;;;15.06;100.00
67434;BME280;54305;47.950;6.572;2023-08-01T08:02:36;93375.72;;;14.94;100.00
67434;BME280;54305;47.950;6.572;2023-08-01T08:05:01;93354.75;;;14.94;100.00
67434;BME280;54305;47.950;6.572;2023-08-01T08:07:27;93352.47;;;15.04;100.00
67434;BME280;54305;47.950;6.572;2023-08-01T08:09:52;93365.19;;;15.07;100.00
67434;BME280;54305;47.950;6.572;2023-08-01T08:12:20;93380.13;;;15.00;100.00
67434;BME280;54305;47.950;6.572;2023-08-01T08:14:45;93378.13;;;15.02;100.00
67434;BME280;54305;47.950;6.572;2023-08-01T08:17:10;93347.03;;;15.05;100.00
67434;BME280;54305;47.950;6.572;2023-08-01T08:19:35;93397.03;;;15.10;100.00
67434;BME280;54305;47.950;6.572;2023-08-01T08:22:01;93389.75;;;15.12;100.00
67434;BME280;54305;47.950;6.572;2023-08-01T08:24:26;93401.88;;;15.07;100.00
67434;BME280;54305;47.950;6.572;2023-08-01T08:26:51;93409.16;;;15.05;100.00
67434;BME280;54305;47.950;6.572;2023-08-01T08:29:17;93408.31;;;15.11;100.00
67434;BME280;54305;47.950;6.572;2023-08-01T08:31:42;93418.38;;;15.14;100.00
67434;BME280;54305;47.950;6.572;2023-08-01T08:34:07;93414.81;;;15.08;100.00
67434;BME280;54305;47.950;6.572;2023-08-01T08:36:33;93412.38;;;15.07;100.00
67434;BME280;54305;47.950;6.572;2023-08-01T08:38:58;93410.38;;;15.02;100.00
67434;BME280;54305;47.950;6.572;2023-08-01T08:41:23;93404.75;;;14.99;100.00
67434;BME280;54305;47.950;6.572;2023-08-01T08:43:51;93412.56;;;14.68;100.00
67434;BME280;54305;47.950;6.572;2023-08-01T08:46:18;93435.97;;;14.63;100.00
67434;BME280;54305;47.950;6.572;2023-08-01T08:48:45;93427.50;;;14.61;100.00
67434;BME280;54305;47.950;6.572;2023-08-01T08:51:11;93438.81;;;14.55;100.00
67434;BME280;54305;47.950;6.572;2023-08-01T08:53:37;93443.06;;;14.49;100.00
67434;BME280;54305;47.950;6.572;2023-08-01T08:56:05;93454.56;;;14.42;100.00
67434;BME280;54305;47.950;6.572;2023-08-01T08:58:33;93443.28;;;14.54;100.00
67434;BME280;54305;47.950;6.572;2023-08-01T09:00:59;93450.13;;;14.49;100.00
67434;BME280;54305;47.950;6.572;2023-08-01T09:03:25;93457.38;;;14.47;100.00
67434;BME280;54305;47.950;6.572;2023-08-01T09:05:51;93456.97;;;14.50;100.00
67434;BME280;54305;47.950;6.572;2023-08-01T09:08:20;93455.34;;;14.62;100.00
67434;BME280;54305;47.950;6.572;2023-08-01T09:10:46;93458.13;;;14.67;100.00
67434;BME280;54305;47.950;6.572;2023-08-01T09:13:12;93445.16;;;14.85;100.00
67434;BME280;54305;47.950;6.572;2023-08-01T09:15:37;93441.84;;;15.02;100.00
67434;BME280;54305;47.950;6.572;2023-08-01T09:18:05;93456.34;;;15.05;100.00
67434;BME280;54305;47.950;6.572;2023-08-01T09:20:39;93448.69;;;15.10;100.00
67434;BME280;54305;47.950;6.572;2023-08-01T09:23:08;93446.13;;;15.28;100.00
67434;BME280;54305;47.950;6.572;2023-08-01T09:25:33;93459.22;;;14.97;100.00
67434;BME280;54305;47.950;6.572;2023-08-01T09:27:58;93457.56;;;15.02;100.00
67434;BME280;54305;47.950;6.572;2023-08-01T09:30:24;93464.03;;;15.00;100.00
67434;BME280;54305;47.950;6.572;2023-08-01T09:32:55;93460.78;;;15.11;100.00
67434;BME280;54305;47.950;6.572;2023-08-01T09:35:21;93470.56;;;14.91;100.00
67434;BME280;54305;47.950;6.572;2023-08-01T09:37:46;93463.63;;;15.03;100.00
67434;BME280;54305;47.950;6.572;2023-08-01T09:40:13;93460.50;;;15.19;100.00
67434;BME280;54305;47.950;6.572;2023-08-01T09:42:39;93472.03;;;15.18;100.00
67434;BME280;54305;47.950;6.572;2023-08-01T09:45:17;93469.56;;;15.23;100.00
67434;BME280;54305;47.950;6.572;2023-08-01T09:47:43;93476.59;;;15.29;100.00
67434;BME280;54305;47.950;6.572;2023-08-01T09:50:09;93471.06;;;15.50;100.00
67434;BME280;54305;47.950;6.572;2023-08-01T09:52:35;93479.97;;;15.49;100.00
67434;BME280;54305;47.950;6.572;2023-08-01T09:55:01;93477.59;;;15.41;100.00
67434;BME280;54305;47.950;6.572;2023-08-01T09:57:28;93476.25;;;15.19;100.00
67434;BME280;54305;47.950;6.572;2023-08-01T09:59:54;93482.16;;;15.08;100.00
67434;BME280;54305;47.950;6.572;2023-08-01T10:02:21;93474.41;;;15.26;100.00
67434;BME280;54305;47.950;6.572;2023-08-01T10:04:49;93477.50;;;15.54;100.00
67434;BME280;54305;47.950;6.572;2023-08-01T10:07:14;93470.22;;;15.56;100.00
67434;BME280;54305;47.950;6.572;2023-08-01T10:09:44;93470.75;;;15.64;100.00
67434;BME280;54305;47.950;6.572;2023-08-01T10:12:09;93465.69;;;15.69;100.00
67434;BME280;54305;47.950;6.572;2023-08-01T10:14:37;93460.19;;;16.02;100.00
67434;BME280;54305;47.950;6.572;2023-08-01T10:17:04;93469.88;;;16.26;100.00
67434;BME280;54305;47.950;6.572;2023-08-01T10:19:30;93462.72;;;16.33;100.00
67434;BME280;54305;47.950;6.572;2023-08-01T10:21:56;93481.50;;;16.61;100.00
67434;BME280;54305;47.950;6.572;2023-08-01T10:24:22;93470.97;;;16.61;100.00
67434;BME280;54305;47.950;6.572;2023-08-01T10:26:48;93462.41;;;16.47;100.00
67434;BME280;54305;47.950;6.572;2023-08-01T10:29:13;93455.88;;;16.32;100.00
67434;BME280;54305;47.950;6.572;2023-08-01T10:31:38;93463.06;;;16.43;100.00
67434;BME280;54305;47.950;6.572;2023-08-01T10:34:04;93470.09;;;16.67;100.00
67434;BME280;54305;47.950;6.572;2023-08-01T10:36:30;93469.78;;;16.93;100.00
67434;BME280;54305;47.950;6.572;2023-08-01T10:38:58;93464.91;;;16.96;100.00
67434;BME280;54305;47.950;6.572;2023-08-01T10:41:27;93472.00;;;17.14;100.00
67434;BME280;54305;47.950;6.572;2023-08-01T10:44:08;93476.28;;;16.90;100.00
67434;BME280;54305;47.950;6.572;2023-08-01T10:46:47;93473.31;;;16.69;100.00
67434;BME280;54305;47.950;6.572;2023-08-01T10:49:12;93473.16;;;16.64;100.00
67434;BME280;54305;47.950;6.572;2023-08-01T10:51:38;93474.41;;;16.79;100.00
67434;BME280;54305;47.950;6.572;2023-08-01T10:54:03;93476.25;;;16.61;100.00
67434;BME280;54305;47.950;6.572;2023-08-01T10:56:28;93486.75;;;16.61;100.00
67434;BME280;54305;47.950;6.572;2023-08-01T10:58:56;93493.47;;;16.75;100.00
67434;BME280;54305;47.950;6.572;2023-08-01T11:01:22;93490.41;;;16.96;100.00
67434;BME280;54305;47.950;6.572;2023-08-01T11:03:47;93484.81;;;17.22;100.00
67434;BME280;54305;47.950;6.572;2023-08-01T11:06:12;93484.66;;;17.35;100.00
67434;BME280;54305;47.950;6.572;2023-08-01T11:08:38;93488.53;;;17.50;100.00
67434;BME280;54305;47.950;6.572;2023-08-01T11:11:04;93488.75;;;17.49;100.00
67434;BME280;54305;47.950;6.572;2023-08-01T11:13:29;93493.34;;;17.83;100.00
67434;BME280;54305;47.950;6.572;2023-08-01T11:15:55;93485.94;;;18.03;100.00
67434;BME280;54305;47.950;6.572;2023-08-01T11:18:21;93494.44;;;17.64;100.00
67434;BME280;54305;47.950;6.572;2023-08-01T11:20:46;93494.59;;;17.51;100.00
67434;BME280;54305;47.950;6.572;2023-08-01T11:23:12;93504.41;;;17.44;100.00
67434;BME280;54305;47.950;6.572;2023-08-01T11:25:38;93502.19;;;17.59;100.00
67434;BME280;54305;47.950;6.572;2023-08-01T11:28:08;93504.31;;;17.80;100.00
67434;BME280;54305;47.950;6.572;2023-08-01T11:30:34;93504.47;;;17.96;100.00
67434;BME280;54305;47.950;6.572;2023-08-01T11:32:59;93503.03;;;18.12;100.00
67434;BME280;54305;47.950;6.572;2023-08-01T11:35:25;93498.63;;;17.35;100.00
67434;BME280;54305;47.950;6.572;2023-08-01T11:37:50;93501.34;;;16.93;100.00
67434;BME280;54305;47.950;6.572;2023-08-01T11:40:16;93501.56;;;17.75;100.00
67434;BME280;54305;47.950;6.572;2023-08-01T11:42:42;93497.81;;;18.35;100.00
67434;BME280;54305;47.950;6.572;2023-08-01T11:45:11;93487.25;;;18.81;100.00
67434;BME280;54305;47.950;6.572;2023-08-01T11:47:36;93493.06;;;19.06;100.00
67434;BME280;54305;47.950;6.572;2023-08-01T11:50:02;93484.28;;;19.68;100.00
67434;BME280;54305;47.950;6.572;2023-08-01T11:52:27;93493.22;;;19.50;100.00
67434;BME280;54305;47.950;6.572;2023-08-01T11:54:53;93493.34;;;18.58;100.00
67434;BME280;54305;47.950;6.572;2023-08-01T11:57:20;93497.09;;;18.28;100.00
67434;BME280;54305;47.950;6.572;2023-08-01T11:59:46;93501.25;;;18.70;100.00
67434;BME280;54305;47.950;6.572;2023-08-01T12:02:11;93500.22;;;18.71;100.00
67434;BME280;54305;47.950;6.572;2023-08-01T12:04:38;93498.94;;;19.08;100.00
67434;BME280;54305;47.950;6.572;2023-08-01T12:07:11;93497.22;;;19.02;100.00
67434;BME280;54305;47.950;6.572;2023-08-01T12:09:37;93500.81;;;18.50;100.00
67434;BME280;54305;47.950;6.572;2023-08-01T12:12:02;93505.00;;;18.28;100.00
67434;BME280;54305;47.950;6.572;2023-08-01T12:14:29;93502.59;;;18.26;100.00
67434;BME280;54305;47.950;6.572;2023-08-01T12:16:54;93496.47;;;18.44;100.00
67434;BME280;54305;47.950;6.572;2023-08-01T12:19:19;93500.59;;;18.63;100.00
67434;BME280;54305;47.950;6.572;2023-08-01T12:21:45;93502.75;;;18.89;100.00
67434;BME280;54305;47.950;6.572;2023-08-01T12:24:10;93506.03;;;19.07;100.00
67434;BME280;54305;47.950;6.572;2023-08-01T12:26:36;93505.59;;;17.89;100.00
67434;BME280;54305;47.950;6.572;2023-08-01T12:29:01;93504.38;;;18.03;100.00
67434;BME280;54305;47.950;6.572;2023-08-01T12:31:26;93507.91;;;18.61;100.00
67434;BME280;54305;47.950;6.572;2023-08-01T12:33:51;93500.53;;;19.09;100.00
67434;BME280;54305;47.950;6.572;2023-08-01T12:36:20;93504.34;;;19.80;100.00
67434;BME280;54305;47.950;6.572;2023-08-01T12:38:45;93497.59;;;19.73;100.00
67434;BME280;54305;47.950;6.572;2023-08-01T12:41:11;93509.19;;;19.44;100.00
67434;BME280;54305;47.950;6.572;2023-08-01T12:43:36;93493.41;;;19.60;100.00
67434;BME280;54305;47.950;6.572;2023-08-01T12:46:01;93494.41;;;19.71;100.00
67434;BME280;54305;47.950;6.572;2023-08-01T12:48:27;93500.91;;;20.08;100.00
67434;BME280;54305;47.950;6.572;2023-08-01T12:50:53;93500.72;;;19.70;100.00
67434;BME280;54305;47.950;6.572;2023-08-01T12:53:18;93506.22;;;20.08;100.00
67434;BME280;54305;47.950;6.572;2023-08-01T12:55:44;93503.63;;;20.46;100.00
67434;BME280;54305;47.950;6.572;2023-08-01T12:58:10;93503.28;;;19.65;100.00
67434;BME280;54305;47.950;6.572;2023-08-01T13:00:35;93515.44;;;19.15;100.00
67434;BME280;54305;47.950;6.572;2023-08-01T13:03:00;93516.56;;;19.19;100.00
67434;BME280;54305;47.950;6.572;2023-08-01T13:05:26;93508.91;;;19.57;100.00
67434;BME280;54305;47.950;6.572;2023-08-01T13:07:51;93511.22;;;18.91;100.00
67434;BME280;54305;47.950;6.572;2023-08-01T13:10:16;93517.38;;;19.19;100.00
67434;BME280;54305;47.950;6.572;2023-08-01T13:12:41;93520.25;;;19.18;100.00
67434;BME280;54305;47.950;6.572;2023-08-01T13:15:07;93516.94;;;19.11;100.00
67434;BME280;54305;47.950;6.572;2023-08-01T13:17:33;93519.59;;;19.11;100.00
67434;BME280;54305;47.950;6.572;2023-08-01T13:19:58;93523.75;;;18.61;100.00
67434;BME280;54305;47.950;6.572;2023-08-01T13:22:24;93520.28;;;18.72;100.00
67434;BME280;54305;47.950;6.572;2023-08-01T13:24:49;93522.47;;;18.52;100.00
67434;BME280;54305;47.950;6.572;2023-08-01T13:27:14;93529.00;;;18.61;100.00
67434;BME280;54305;47.950;6.572;2023-08-01T13:29:39;93530.91;;;18.31;100.00
67434;BME280;54305;47.950;6.572;2023-08-01T13:32:05;93536.06;;;18.26;100.00
67434;BME280;54305;47.950;6.572;2023-08-01T13:34:31;93535.81;;;18.16;100.00
67434;BME280;54305;47.950;6.572;2023-08-01T13:36:56;93538.75;;;18.08;100.00
67434;BME280;54305;47.950;6.572;2023-08-01T13:39:22;93539.00;;;18.18;100.00
67434;BME280;54305;47.950;6.572;2023-08-01T13:41:47;93544.19;;;18.24;100.00
67434;BME280;54305;47.950;6.572;2023-08-01T13:44:12;93547.25;;;18.10;100.00
67434;BME280;54305;47.950;6.572;2023-08-01T13:46:38;93549.31;;;18.08;100.00
67434;BME280;54305;47.950;6.572;2023-08-01T13:49:03;93554.03;;;18.17;100.00
67434;BME280;54305;47.950;6.572;2023-08-01T13:51:30;93555.97;;;18.22;100.00
67434;BME280;54305;47.950;6.572;2023-08-01T13:53:56;93557.91;;;18.03;100.00
67434;BME280;54305;47.950;6.572;2023-08-01T13:56:24;93554.56;;;18.08;100.00
67434;BME280;54305;47.950;6.572;2023-08-01T13:58:49;93559.59;;;17.98;100.00
67434;BME280;54305;47.950;6.572;2023-08-01T14:01:15;93558.25;;;18.07;100.00
67434;BME280;54305;47.950;6.572;2023-08-01T14:03:40;93555.38;;;17.79;100.00
67434;BME280;54305;47.950;6.572;2023-08-01T14:06:06;93561.06;;;17.94;100.00
67434;BME280;54305;47.950;6.572;2023-08-01T14:08:32;93557.72;;;17.87;100.00
67434;BME280;54305;47.950;6.572;2023-08-01T14:10:57;93568.97;;;17.94;100.00
67434;BME280;54305;47.950;6.572;2023-08-01T14:13:22;93569.16;;;17.81;100.00
67434;BME280;54305;47.950;6.572;2023-08-01T14:15:47;93565.75;;;17.92;100.00
67434;BME280;54305;47.950;6.572;2023-08-01T14:18:13;93582.72;;;17.96;100.00
67434;BME280;54305;47.950;6.572;2023-08-01T14:20:38;93574.69;;;17.91;100.00
67434;BME280;54305;47.950;6.572;2023-08-01T14:23:03;93577.19;;;17.86;100.00
67434;BME280;54305;47.950;6.572;2023-08-01T14:25:28;93579.50;;;17.94;100.00
67434;BME280;54305;47.950;6.572;2023-08-01T14:27:54;93578.78;;;17.87;100.00
67434;BME280;54305;47.950;6.572;2023-08-01T14:30:19;93579.78;;;18.15;100.00
67434;BME280;54305;47.950;6.572;2023-08-01T14:32:44;93579.56;;;18.17;100.00
67434;BME280;54305;47.950;6.572;2023-08-01T14:35:09;93582.22;;;18.17;100.00
67434;BME280;54305;47.950;6.572;2023-08-01T14:37:35;93579.50;;;17.94;100.00
67434;BME280;54305;47.950;6.572;2023-08-01T14:40:01;93582.91;;;17.83;100.00
67434;BME280;54305;47.950;6.572;2023-08-01T14:42:28;93586.00;;;17.62;100.00
67434;BME280;54305;47.950;6.572;2023-08-01T14:44:53;93580.75;;;17.62;100.00
67434;BME280;54305;47.950;6.572;2023-08-01T14:47:19;93577.47;;;17.96;100.00
67434;BME280;54305;47.950;6.572;2023-08-01T14:49:44;93592.97;;;18.15;100.00
67434;BME280;54305;47.950;6.572;2023-08-01T14:52:10;93598.78;;;18.35;100.00
67434;BME280;54305;47.950;6.572;2023-08-01T14:54:35;93591.72;;;18.18;100.00
67434;BME280;54305;47.950;6.572;2023-08-01T14:57:01;93597.72;;;18.25;100.00
67434;BME280;54305;47.950;6.572;2023-08-01T14:59:26;93602.06;;;18.49;100.00
67434;BME280;54305;47.950;6.572;2023-08-01T15:01:51;93588.19;;;18.65;100.00
67434;BME280;54305;47.950;6.572;2023-08-01T15:04:17;93585.69;;;18.93;100.00
67434;BME280;54305;47.950;6.572;2023-08-01T15:06:42;93591.97;;;18.57;100.00
67434;BME280;54305;47.950;6.572;2023-08-01T15:09:07;93586.44;;;18.18;100.00
67434;BME280;54305;47.950;6.572;2023-08-01T15:11:34;93584.03;;;18.16;100.00
67434;BME280;54305;47.950;6.572;2023-08-01T15:14:00;93598.06;;;17.99;100.00
67434;BME280;54305;47.950;6.572;2023-08-01T15:16:25;93593.66;;;18.11;100.00
67434;BME280;54305;47.950;6.572;2023-08-01T15:18:50;93598.53;;;18.78;100.00
67434;BME280;54305;47.950;6.572;2023-08-01T15:21:15;93597.25;;;19.15;100.00
67434;BME280;54305;47.950;6.572;2023-08-01T15:23:41;93594.41;;;18.70;100.00
67434;BME280;54305;47.950;6.572;2023-08-01T15:26:06;93598.56;;;18.37;100.00
67434;BME280;54305;47.950;6.572;2023-08-01T15:28:31;93595.38;;;18.17;100.00
67434;BME280;54305;47.950;6.572;2023-08-01T15:31:03;93586.72;;;17.69;100.00
67434;BME280;54305;47.950;6.572;2023-08-01T15:33:29;93600.84;;;17.56;100.00
67434;BME280;54305;47.950;6.572;2023-08-01T15:36:02;93604.31;;;17.57;100.00
67434;BME280;54305;47.950;6.572;2023-08-01T15:38:27;93609.50;;;17.45;100.00
67434;BME280;54305;47.950;6.572;2023-08-01T15:40:54;93609.97;;;17.36;100.00
67434;BME280;54305;47.950;6.572;2023-08-01T15:43:20;93602.25;;;17.59;100.00
67434;BME280;54305;47.950;6.572;2023-08-01T15:45:45;93596.97;;;17.59;100.00
67434;BME280;54305;47.950;6.572;2023-08-01T15:48:10;93606.91;;;17.75;100.00
67434;BME280;54305;47.950;6.572;2023-08-01T15:50:35;93607.63;;;17.82;100.00
67434;BME280;54305;47.950;6.572;2023-08-01T15:53:01;93610.25;;;18.00;100.00
67434;BME280;54305;47.950;6.572;2023-08-01T15:55:26;93620.59;;;18.13;100.00
67434;BME280;54305;47.950;6.572;2023-08-01T15:57:51;93613.44;;;18.02;100.00
67434;BME280;54305;47.950;6.572;2023-08-01T16:00:17;93615.13;;;18.26;100.00
67434;BME280;54305;47.950;6.572;2023-08-01T16:02:42;93617.03;;;18.19;100.00
67434;BME280;54305;47.950;6.572;2023-08-01T16:05:07;93616.03;;;18.20;100.00
67434;BME280;54305;47.950;6.572;2023-08-01T16:07:32;93614.06;;;17.86;100.00
67434;BME280;54305;47.950;6.572;2023-08-01T16:09:58;93618.09;;;17.88;100.00
67434;BME280;54305;47.950;6.572;2023-08-01T16:12:23;93629.94;;;17.97;100.00
67434;BME280;54305;47.950;6.572;2023-08-01T16:14:48;93623.56;;;18.05;100.00
67434;BME280;54305;47.950;6.572;2023-08-01T16:17:13;93618.00;;;18.54;100.00
67434;BME280;54305;47.950;6.572;2023-08-01T16:19:39;93625.59;;;18.85;100.00
67434;BME280;54305;47.950;6.572;2023-08-01T16:22:04;93620.75;;;18.59;100.00
67434;BME280;54305;47.950;6.572;2023-08-01T16:24:29;93638.38;;;18.47;100.00